Latest Coastal Weather Observations for King Island Airport

IDT60701

Issued at 9:35 am EDT Thursday 23 October 2014 (issued every 10 minutes, with the page automatically refreshed every 10 minutes)

About coastal observations | Map of coastal stations | Coastal observations for TAS | Marine services | Other Formats
Station Details ID: 098017 Name: KING ISLAND AIRPORT Lat: -39.88 Lon: 143.88 Height: 37.0 m
Data from the previous 72 hours. | See also: Recent months at King Island Airport
Date/Time
EDT
Temp

°C
Wind Pressure Rain
since 9am
mm
Weather Cloud Vis
km
Sea
Height
m
Swell
Dir
 
Speed
knots
Gust
knots
hPa Trend Height
m
Period
s
Dir
23/09:30am 14.6 SE 14 18 1021.2 - 0.0 - Partly cloudy 10 - - - -
23/09:00am 14.0 SE 17 24 1021.1 - 0.0 - Partly cloudy 10 - - - -
23/08:32am 13.7 SSE 13 19 1021.2 - 0.0 - Partly cloudy 10 - - - -
23/08:30am 13.6 SSE 14 19 1021.2 - 0.0 - Partly cloudy 10 - - - -
23/08:00am 13.4 SSE 13 20 1020.8 - 0.0 - Partly cloudy 10 - - - -
23/07:30am 12.9 SSE 13 19 1020.3 - 0.0 - Cloudy 10 - - - -
23/07:00am 12.7 SSE 11 16 1020.0 - 0.0 - Cloudy 10 - - - -
23/06:30am 12.5 S 13 23 1019.6 - 0.0 - Cloudy 10 - - - -
23/06:00am 12.6 S 13 21 1019.8 - 0.0 - Cloudy 10 - - - -
23/05:30am 12.6 S 12 18 1019.7 - 0.0 - Cloudy 10 - - - -
23/05:00am 12.9 S 13 21 1019.8 - 0.0 - Cloudy 10 - - - -
23/04:30am 12.9 S 10 17 1019.7 - 0.0 - Cloudy 10 - - - -
23/04:00am 13.1 S 9 14 1019.6 - 0.0 - Cloudy 10 - - - -
23/03:30am 13.1 S 10 16 1019.5 - 0.0 - Cloudy 10 - - - -
23/03:00am 13.2 SSE 11 17 1019.6 - 0.0 - Cloudy 10 - - - -
23/02:30am 13.2 SSE 10 15 1019.5 - 0.0 - Cloudy 10 - - - -
23/02:00am 13.2 SSE 12 19 1019.4 - 0.0 - Cloudy 10 - - - -
23/01:30am 13.1 SSE 12 18 1019.5 - 0.0 - Cloudy 10 - - - -
23/01:00am 13.3 S 15 21 1019.1 - 0.0 - Cloudy 10 - - - -
23/12:30am 13.3 S 15 21 1018.8 - 0.0 - Cloudy 10 - - - -
23/12:00am 13.3 S 15 21 1018.8 - 0.0 - Mostly cloudy 10 - - - -
 
Date/Time
EDT
Temp

°C
Wind Pressure Rain
since 9am
mm
Weather Cloud Vis
km
Sea
Height
m
Swell
Dir
 
Speed
knots
Gust
knots
hPa Trend Height
m
Period
s
Dir
22/11:30pm 13.6 S 14 24 1019.1 - 0.0 - Cloudy 10 - - - -
22/11:00pm 13.7 S 11 17 1019.2 - 0.0 - Cloudy 10 - - - -
22/10:30pm 13.9 S 9 14 1019.2 - 0.0 - Cloudy 10 - - - -
22/10:00pm 14.2 S 11 19 1018.9 - 0.0 - Cloudy 10 - - - -
22/09:30pm 14.2 S 10 15 1018.5 - 0.0 - Cloudy 10 - - - -
22/09:00pm 14.3 S 13 18 1018.2 - 0.0 - Mostly cloudy 10 - - - -
22/08:30pm 14.3 S 12 20 1017.8 - 0.0 - Cloudy 9 - - - -
22/08:00pm 14.3 S 15 22 1017.4 - 0.0 - Cloudy 10 - - - -
22/07:45pm 14.5 SSW 15 22 1017.3 - 0.0 - Partly cloudy 10 - - - -
22/07:30pm 14.7 S 15 19 1017.1 - 0.0 - - 10 - - - -
22/07:00pm 15.6 SSW 17 24 1016.6 - 0.0 - - 10 - - - -
22/06:30pm 15.4 SW 11 16 1016.4 - 0.0 - - 10 - - - -
22/06:00pm 16.7 W 11 14 1016.1 - 0.0 - Partly cloudy 10 - - - -
22/05:30pm 18.4 WNW 8 9 1015.6 - 0.0 - - 10 - - - -
22/05:00pm 18.5 WNW 9 13 1015.7 - 0.0 - - 10 - - - -
22/04:30pm 19.4 WNW 11 15 1016.0 - 0.0 - - 10 - - - -
22/04:00pm 22.1 NW 10 13 1015.9 - 0.0 - - - - - - -
22/03:30pm 22.2 NNW 8 9 1015.9 - 0.0 - - - - - - -
22/03:00pm 22.5 NNW 7 10 1016.1 - 0.0 - Partly cloudy 10 - - - -
22/02:30pm 22.5 NNE 6 8 1016.1 - 0.0 - - 10 - - - -
22/02:00pm 21.5 ENE 7 9 1016.4 - 0.0 - - 10 - - - -
22/01:30pm 20.6 ENE 9 11 1016.3 - 0.0 - - 10 - - - -
22/01:00pm 20.0 ENE 12 16 1016.5 - 0.0 - - 10 - - - -
22/12:30pm 20.3 E 10 15 1016.9 - 0.0 - - 10 - - - -
22/12:00pm 20.4 ENE 13 16 1017.4 - 0.0 - - - - - - -
22/11:30am 19.3 ENE 13 16 1018.0 - 0.0 - - - - - - -
22/11:00am 18.6 E 15 18 1018.0 - 0.0 - - - - - - -
22/10:30am 18.2 ENE 13 18 1018.4 - 0.0 - - 10 - - - -
22/10:00am 17.0 ENE 15 19 1018.4 - 0.0 - - 10 - - - -
22/09:30am 16.6 E 15 19 1018.8 - 0.0 - - 10 - - - -
22/09:00am 15.4 E 15 19 1018.8 - 0.0 - - 10 - - - -
22/08:30am 14.9 E 14 18 1019.3 - 0.0 - Partly cloudy 10 - - - -
22/08:00am 14.0 E 17 21 1019.2 - 0.0 - - 10 - - - -
22/07:30am 13.4 E 16 21 1019.1 - 0.0 - Partly cloudy - - - - -
22/07:00am 13.0 E 17 21 1019.1 - 0.0 - - - - - - -
22/06:30am 12.8 E 17 21 1018.9 - 0.0 - - - - - - -
22/06:00am 12.8 E 16 19 1018.9 - 0.0 - Mostly clear - - - - -
22/05:30am 12.9 E 17 23 1018.5 - 0.0 - - - - - - -
22/05:00am 12.7 E 17 21 1018.9 - 0.0 - - - - - - -
22/04:30am 12.7 E 17 21 1019.2 - 0.0 - - - - - - -
22/04:00am 12.8 E 16 20 1019.5 - 0.0 - - - - - - -
22/03:30am 12.6 E 17 22 1019.6 - 0.0 - - - - - - -
22/03:00am 12.7 E 18 24 1020.2 - 0.0 - - - - - - -
22/02:30am 12.6 E 16 20 1020.9 - 0.0 - - - - - - -
22/02:00am 12.7 E 16 20 1021.2 - 0.0 - - - - - - -
22/01:30am 12.7 E 17 24 1021.7 - 0.0 - - 10 - - - -
22/01:00am 12.8 E 17 21 1022.2 - 0.0 - - 10 - - - -
22/12:30am 12.8 E 17 23 1022.6 - 0.0 - - 10 - - - -
22/12:00am 12.8 E 17 23 1023.1 - 0.0 - - 10 - - - -
 
Date/Time
EDT
Temp

°C
Wind Pressure Rain
since 9am
mm
Weather Cloud Vis
km
Sea
Height
m
Swell
Dir
 
Speed
knots
Gust
knots
hPa Trend Height
m
Period
s
Dir
21/11:30pm 12.8 E 19 25 1023.2 - 0.0 - - 10 - - - -
21/11:00pm 12.9 E 18 24 1023.6 - 0.0 - - 10 - - - -
21/10:30pm 12.9 E 17 22 1023.7 - 0.0 - - 10 - - - -
21/10:00pm 12.9 E 18 27 1024.0 - 0.0 - - 10 - - - -
21/09:30pm 12.9 ENE 18 26 1024.3 - 0.0 - - 10 - - - -
21/09:00pm 12.8 E 18 23 1024.2 - 0.0 - - 10 - - - -
21/08:30pm 12.9 E 17 24 1024.1 - 0.0 - - 10 - - - -
21/08:03pm 13.1 E 19 29 1024.0 - 0.0 - - 10 - - - -
21/08:00pm 13.1 E 20 29 1024.0 - 0.0 - - 10 - - - -
21/07:30pm 13.4 E 19 28 1024.1 - 0.0 - - 10 - - - -
21/07:00pm 14.0 E 19 26 1024.3 - 0.0 - - - - - - -
21/06:30pm 14.5 E 19 27 1024.6 - 0.0 - - - - - - -
21/06:13pm 14.9 E 20 30 1024.4 - 0.0 - - - - - - -
21/06:00pm 15.0 E 22 30 1024.5 - 0.0 - - - - - - -
21/05:47pm 15.2 E 22 32 1024.8 - 0.0 - - - - - - -
21/05:30pm 15.7 E 22 29 1024.9 - 0.0 - - - - - - -
21/05:00pm 15.9 E 20 30 1024.9 - 0.0 - - - - - - -
21/04:52pm 16.0 E 20 30 1024.9 - 0.0 - - - - - - -
21/04:30pm 16.0 ENE 22 30 1025.0 - 0.0 - - - - - - -
21/04:00pm 16.4 E 21 32 1025.3 - 0.0 - - - - - - -
21/03:30pm 16.7 E 21 31 1025.6 - 0.0 - - - - - - -
21/03:04pm 16.8 E 23 33 1025.8 - 0.0 - - - - - - -
21/03:00pm 16.9 E 22 31 1025.9 - 0.0 - - - - - - -
21/02:38pm 16.6 ENE 21 31 1026.2 - 0.0 - - - - - - -
21/02:30pm 16.8 ENE 23 32 1026.3 - 0.0 - - - - - - -
21/02:00pm 17.1 ENE 23 36 1026.5 - 0.0 - - - - - - -
21/01:47pm 16.8 ENE 22 32 1026.5 - 0.0 - - - - - - -
21/01:30pm 16.5 ENE 25 34 1026.9 - 0.0 - - - - - - -
21/01:09pm 16.4 ENE 24 35 1027.1 - 0.0 - - - - - - -
21/01:00pm 16.8 E 24 32 1027.2 - 0.0 - - - - - - -
21/12:34pm 16.2 E 24 34 1027.4 - 0.0 - - - - - - -
21/12:30pm 16.7 E 24 31 1027.4 - 0.0 - - - - - - -
21/12:03pm 16.2 ENE 24 34 1027.6 - 0.0 - - - - - - -
21/12:00pm 16.4 E 25 34 1027.7 - 0.0 - - - - - - -
21/11:30am 16.0 E 26 34 1027.8 - 0.0 - - - - - - -
21/11:00am 15.9 E 25 37 1028.1 - 0.0 - Partly cloudy - - - - -
21/10:30am 15.1 E 21 32 1028.7 - 0.0 - Partly cloudy - - - - -
21/10:00am 15.1 E 23 33 1028.7 - 0.0 - Partly cloudy - - - - -
21/09:30am 14.6 E 25 38 1028.3 - 0.0 - - - - - - -
21/09:00am 14.2 E 23 34 1028.2 - 0.0 - - - - - - -
21/08:33am 13.8 E 23 33 1028.2 - 0.0 - - - - - - -
21/08:30am 13.8 E 22 31 1028.2 - 0.0 - - - - - - -
21/08:00am 13.1 E 21 31 1028.3 - 0.0 - Partly cloudy 10 - - - -
21/07:41am 12.8 ENE 19 32 1028.6 - 0.0 - Cloudy 10 - - - -
21/07:30am 12.7 ENE 18 27 1028.6 - 0.0 - Cloudy 10 - - - -
21/07:07am 12.5 ENE 18 29 1028.6 - 0.0 - Cloudy 10 - - - -
21/07:00am 12.4 ENE 18 26 1028.5 - 0.0 - Cloudy 10 - - - -
21/06:30am 12.1 E 19 26 1028.2 - 0.0 - Partly cloudy 10 - - - -
21/06:00am 11.9 ENE 22 32 1027.8 - 0.0 - Partly cloudy 10 - - - -
21/05:44am 11.7 E 20 31 1027.7 - 0.0 - Partly cloudy 10 - - - -
21/05:30am 11.4 E 17 26 1027.8 - 0.0 - Partly cloudy 10 - - - -
21/05:00am 11.2 ENE 17 24 1028.1 - 0.0 - - 10 - - - -
21/04:30am 11.4 ENE 18 24 1028.1 - 0.0 - Partly cloudy 10 - - - -
21/04:00am 11.3 ENE 16 26 1028.4 - 0.0 - Partly cloudy 10 - - - -
21/03:52am 11.2 ENE 16 26 1028.4 - 0.0 - Partly cloudy 10 - - - -
21/03:30am 11.3 ENE 20 28 1028.6 - 0.0 - - 10 - - - -
21/03:05am 11.5 ENE 17 27 1028.9 - 0.0 - Partly cloudy 10 - - - -
21/03:00am 11.3 E 16 24 1029.0 - 0.0 - Partly cloudy 10 - - - -
21/02:30am 11.4 E 17 24 1029.2 - 0.0 - Partly cloudy 10 - - - -
21/02:00am 11.4 E 16 21 1029.4 - 0.0 - Partly cloudy 10 - - - -
21/01:30am 11.3 E 14 20 1030.3 - 0.0 - Partly cloudy 10 - - - -
21/01:00am 11.1 E 13 18 1030.8 - 0.0 - Partly cloudy 10 - - - -
21/12:30am 11.2 E 13 18 1031.1 - 0.0 - Partly cloudy 10 - - - -
21/12:00am 11.2 E 12 18 1031.2 - 0.0 - Mostly clear 10 - - - -
 
Date/Time
EDT
Temp

°C
Wind Pressure Rain
since 9am
mm
Weather Cloud Vis
km
Sea
Height
m
Swell
Dir
 
Speed
knots
Gust
knots
hPa Trend Height
m
Period
s
Dir
20/11:30pm 11.1 E 15 20 1031.4 - 0.0 - - 10 - - - -
20/11:00pm 10.9 E 13 17 1031.4 - 0.0 - - 10 - - - -
20/10:30pm 10.6 E 14 21 1031.6 - 0.0 - - 10 - - - -
20/10:00pm 10.2 E 12 17 1031.8 - 0.0 - - 10 - - - -
20/09:30pm 9.6 E 11 15 1032.1 - 0.0 - - 10 - - - -
20/09:00pm 8.9 E 9 12 1032.1 - 0.0 - - 10 - - - -
20/08:30pm 9.1 E 9 10 1031.8 - 0.0 - - 10 - - - -
20/08:00pm 9.5 E 9 12 1031.7 - 0.0 - - 10 - - - -
20/07:30pm 10.4 E 13 16 1031.5 - 0.0 - - 10 - - - -
20/07:00pm 11.1 E 16 21 1031.5 - 0.0 - - - - - - -
20/06:30pm 11.8 E 17 21 1031.6 - 0.0 - - - - - - -
20/06:00pm 12.3 E 17 23 1031.6 - 0.0 - - - - - - -
20/05:30pm 13.0 E 15 20 1032.0 - 0.0 - - - - - - -
20/05:00pm 12.6 E 17 21 1032.1 - 0.0 - - - - - - -
20/04:30pm 12.7 E 16 20 1032.2 - 0.0 - - - - - - -
20/04:00pm 12.6 ESE 16 22 1032.3 - 0.0 - - - - - - -
20/03:30pm 13.1 ESE 16 21 1032.3 - 0.0 - - - - - - -
20/03:00pm 13.2 E 16 20 1032.4 - 0.0 - - - - - - -
20/02:30pm 13.6 E 15 21 1032.6 - 0.0 - - - - - - -
20/02:00pm 13.5 E 17 22 1032.8 - 0.0 - Partly cloudy - - - - -
20/01:30pm 14.1 E 16 21 1032.8 - 0.0 - Partly cloudy - - - - -
20/01:00pm 13.5 E 14 19 1033.0 - 0.0 - Partly cloudy - - - - -
20/12:30pm 13.4 E 15 20 1033.3 - 0.0 - - - - - - -
20/12:00pm 13.1 E 15 19 1033.5 - 0.0 - - - - - - -
20/11:30am 12.5 SE 12 19 1033.8 - 0.0 - - - - - - -
20/11:00am 12.5 ESE 14 19 1033.9 - 0.0 - - - - - - -
20/10:30am 12.0 SE 16 22 1033.9 - 0.0 - - - - - - -
20/10:00am 11.8 ESE 16 21 1033.7 - 0.0 - - - - - - -

Other Formats:

Comma delimited format used in spreadsheet applications
http://www.bom.gov.au/fwo/IDT60701/IDT60701.94850.axf

JavaScript Object Notation format (JSON) in row-major order
http://www.bom.gov.au/fwo/IDT60701/IDT60701.94850.json